Have a Safe July 4th! 

Flight Track Log - Related Links

Times and Time Zones

All times are in EDT time to prevent confusion due to time zone crossing. See the EGC636 flight status page for this flight to view local times or setup timezone preferences in your user account.

Time Position Orientation Groundspeed Altitude Reporting Facility
EDT Latitude Longitude Course Direction KTS MPH feet Rate Location/Type
Sun 05:43:31 PM 34.1772 -118.4867 132° Southeast 170 196 41,000  Level Los Angeles Center
Sun 05:44:08 PM 34.1500 -118.4500 132° Southeast 198 228 3,300 -21,897 Descending Southern California TRACON
Sun 05:45:08 PM 34.1833 -118.4000 51° Northeast 232 267 5,600 2,434 Climbing Southern California TRACON
Sun 05:47:40 PM 34.3575 -118.4575 345° North 271 312 11,900 2,692 Climbing Los Angeles Center
Sun 05:48:42 PM 34.4250 -118.4128 29° Northeast 271 312 15,200 2,806 Climbing Los Angeles Center
Sun 05:49:44 PM 34.4733 -118.3397 51° Northeast 281 323 17,700 2,274 Climbing Los Angeles Center
Sun 05:50:46 PM 34.5175 -118.2606 56° Northeast 282 325 19,900 2,226 Climbing Los Angeles Center
Sun 05:51:48 PM 34.5647 -118.1811 54° Northeast 290 334 22,300 1,806 Climbing Los Angeles Center
Sun 05:53:00 PM 34.6185 -118.0402 77° East  Level FlightAware Approximate
Sun 05:53:52 PM 34.6414 -117.9842 77° East 324 373 25,500  Level Los Angeles Center
Sun 05:54:55 PM 34.6522 -117.8711 83° East 338 389 26,800 1,296 Climbing Los Angeles Center
Sun 05:55:57 PM 34.6831 -117.7628 71° East 349 402 28,200 1,597 Climbing Los Angeles Center
Sun 05:56:59 PM 34.7478 -117.6494 55° Northeast 343 395 30,100 1,694 Climbing Los Angeles Center
Sun 05:58:01 PM 34.7989 -117.5547 57° Northeast 340 391 31,700 1,597 Climbing Los Angeles Center
Sun 05:59:03 PM 34.8497 -117.4619 56° Northeast 334 384 33,400 1,645 Climbing Los Angeles Center
Sun 06:00:05 PM 34.8997 -117.3719 56° Northeast 327 376 35,100 1,694 Climbing Los Angeles Center
Sun 06:01:07 PM 34.9478 -117.2842 56° Northeast 316 364 36,900 1,694 Climbing Los Angeles Center
Sun 06:02:09 PM 35.0036 -117.1825 56° Northeast 304 350 38,600 1,355 Climbing Los Angeles Center
Sun 06:03:11 PM 35.0489 -117.1006 56° Northeast 296 341 39,700 968 Climbing Los Angeles Center
Sun 06:04:13 PM 35.0942 -117.0169 56° Northeast 296 341 40,600 624 Climbing Los Angeles Center
Sun 06:05:16 PM 35.1403 -116.9306 57° Northeast 302 348 41,000 192 Climbing Los Angeles Center
Sun 06:06:18 PM 35.1894 -116.8394 57° Northeast 319 367 41,000  Level Los Angeles Center
Sun 06:07:20 PM 35.2550 -116.7214 56° Northeast 345 397 41,000  Level Los Angeles Center
Sun 06:08:22 PM 35.3092 -116.6186 57° Northeast 356 410 41,000  Level Los Angeles Center
Sun 06:09:24 PM 35.3661 -116.5144 56° Northeast 366 421 41,000  Level Los Angeles Center
Sun 06:10:26 PM 35.4233 -116.4061 57° Northeast 376 433 41,000  Level Los Angeles Center
Sun 06:11:28 PM 35.4814 -116.2994 56° Northeast 380 437 41,000  Level Los Angeles Center
Sun 06:12:30 PM 35.5489 -116.1736 57° Northeast 370 426 41,000  Level Los Angeles Center
Sun 06:13:32 PM 35.6042 -116.0694 57° Northeast 366 421 41,000  Level Los Angeles Center
Sun 06:14:47 PM 35.6697 -115.9467 57° Northeast 359 413 41,000  Level Los Angeles Center
Sun 06:15:49 PM 35.7242 -115.8406 58° Northeast 358 412 41,000  Level Los Angeles Center
Sun 06:16:51 PM 35.7778 -115.7394 57° Northeast 356 410 41,000  Level Los Angeles Center
Sun 06:17:53 PM 35.8308 -115.6383 57° Northeast 352 405 41,000  Level Los Angeles Center
Sun 06:18:55 PM 35.8936 -115.5192 57° Northeast 349 402 41,000  Level Los Angeles Center
Sun 06:19:57 PM 35.9458 -115.4192 57° Northeast 348 400 41,000  Level Los Angeles Center
Sun 06:21:00 PM 35.9983 -115.3169 58° Northeast 353 406 41,000  Level Los Angeles Center
Sun 06:22:02 PM 36.0503 -115.2172 57° Northeast 350 403 41,000  Level Los Angeles Center
Sun 06:23:04 PM 36.0942 -115.1108 63° Northeast 350 403 41,000  Level Los Angeles Center
Sun 06:24:06 PM 36.1283 -114.9728 73° East 352 405 41,000  Level Los Angeles Center
Sun 06:25:08 PM 36.1583 -114.8572 72° East 352 405 41,000  Level Los Angeles Center
Sun 06:26:10 PM 36.1886 -114.7439 72° East 351 404 41,000  Level Los Angeles Center
Sun 06:27:12 PM 36.2181 -114.6294 72° East 350 403 41,000  Level Los Angeles Center
Sun 06:28:14 PM 36.2475 -114.5144 72° East 350 403 41,000  Level Los Angeles Center
Sun 06:29:16 PM 36.2833 -114.3783 72° East 348 400 41,000  Level Los Angeles Center
Sun 06:30:18 PM 36.3122 -114.2639 73° East 349 402 41,000  Level Los Angeles Center
Sun 06:31:21 PM 36.3408 -114.1481 73° East 350 403 41,000  Level Los Angeles Center
Sun 06:32:23 PM 36.3706 -114.0353 72° East 348 400 41,000  Level Los Angeles Center
Sun 06:33:25 PM 36.3997 -113.9203 72° East 349 402 41,000  Level Los Angeles Center
Sun 06:34:27 PM 36.4286 -113.8058 73° East 349 402 41,000  Level Los Angeles Center
Sun 06:35:29 PM 36.4633 -113.6689 72° East 347 399 41,000  Level Los Angeles Center
Sun 06:36:31 PM 36.4914 -113.5531 73° East 350 403 41,000  Level Los Angeles Center
Sun 06:37:33 PM 36.5225 -113.4317 72° East 347 399 41,000 339 Level Los Angeles Center
Sun 06:38:35 PM 36.5503 -113.3169 73° East 348 400 41,700 677 Climbing Los Angeles Center
Sun 06:39:37 PM 36.5786 -113.2031 73° East 347 399 42,400 629 Climbing Los Angeles Center
Sun 06:40:39 PM 36.6058 -113.0906 73° East 342 394 43,000 290 Climbing Los Angeles Center
Sun 06:41:41 PM 36.6344 -112.9758 73° East 347 399 43,000  Level Los Angeles Center
Sun 06:42:43 PM 36.6625 -112.8622 73° East 346 398 43,000  Level Los Angeles Center
Sun 06:43:45 PM 36.6947 -112.7258 74° East 344 396 43,000  Level Los Angeles Center
Sun 06:44:48 PM 36.7211 -112.6142 74° East 339 390 43,000  Level Los Angeles Center
Sun 06:45:50 PM 36.7481 -112.5019 73° East 339 390 43,000  Level Los Angeles Center
Sun 06:46:54 PM 36.7744 -112.3911 73° East 336 387 43,000  Level Los Angeles Center
Sun 06:47:54 PM 36.8011 -112.2803 73° East 335 386 43,000  Level Los Angeles Center
Sun 06:48:56 PM 36.8333 -112.1458 73° East 338 389 43,000  Level Los Angeles Center
Sun 06:49:58 PM 36.8581 -112.0353 74° East 334 384 43,000  Level Los Angeles Center
Sun 06:50:51 PM 36.8797 -111.9467 73° East 335 386 43,000  Level Denver Center
Sun 06:51:52 PM 36.9069 -111.8347 73° East 336 387 43,000  Level Denver Center
Sun 06:52:54 PM 36.9328 -111.7236 74° East 336 387 43,000 97 Level Denver Center
Sun 06:53:56 PM 36.9647 -111.5897 73° East 336 387 43,200 484 Climbing Denver Center
Sun 06:54:58 PM 36.9914 -111.4778 73° East 337 388 44,000 732 Climbing Denver Center
Sun 06:55:59 PM 37.0158 -111.3694 74° East 330 380 44,700 488 Climbing Denver Center
Sun 06:57:01 PM 37.0364 -111.2661 76° East 315 362 45,000 145 Climbing Denver Center
Sun 06:58:03 PM 37.0611 -111.1561 74° East 328 377 45,000  Level Denver Center
Sun 06:59:05 PM 37.0867 -111.0433 74° East 338 389 45,000  Level Denver Center
Sun 07:00:06 PM 37.1158 -110.9094 75° East 334 384 45,000  Level Denver Center
Sun 07:01:08 PM 37.1411 -110.7981 74° East 333 383 45,000  Level Denver Center
Sun 07:02:10 PM 37.1656 -110.6867 75° East 332 382 45,000  Level Denver Center
Sun 07:03:12 PM 37.1908 -110.5747 74° East 335 386 45,000  Level Denver Center
Sun 07:04:13 PM 37.2139 -110.4636 75° East 333 383 45,000  Level Denver Center
Sun 07:05:15 PM 37.2392 -110.3536 74° East 330 380 45,000  Level Denver Center
Sun 07:06:17 PM 37.2633 -110.2414 75° East 333 383 45,000  Level Denver Center
Sun 07:07:19 PM 37.2892 -110.1222 75° East 336 387 45,000  Level Denver Center
Sun 07:08:21 PM 37.3161 -109.9956 75° East 337 388 45,000  Level Denver Center
Sun 07:09:23 PM 37.3389 -109.8869 75° East 336 387 45,000  Level Denver Center
Sun 07:10:25 PM 37.3664 -109.7594 75° East 337 388 45,000  Level Denver Center
Sun 07:11:26 PM 37.3903 -109.6489 75° East 342 394 45,000  Level Denver Center
Sun 07:12:28 PM 37.4175 -109.5208 75° East 339 390 45,000  Level Denver Center
Sun 07:13:30 PM 37.4400 -109.4100 76° East 340 391 45,000  Level Denver Center
Sun 07:14:32 PM 37.4672 -109.2806 75° East 341 392 45,000  Level Denver Center
Sun 07:15:34 PM 37.4903 -109.1700 75° East 341 392 45,000  Level Denver Center
Sun 07:16:36 PM 37.5122 -109.0578 76° East 343 395 45,000  Level Denver Center
Sun 07:17:38 PM 37.5406 -108.9269 75° East 344 396 45,000  Level Denver Center
Sun 07:18:39 PM 37.5586 -108.8308 77° East 350 403 45,000  Level Denver Center
Sun 07:19:42 PM 37.5894 -108.6781 76° East 351 404 45,000  Level Denver Center
Sun 07:20:44 PM 37.6128 -108.5631 76° East 353 406 45,000  Level Denver Center
Sun 07:21:46 PM 37.6403 -108.4294 75° East 353 406 45,000  Level Denver Center
Sun 07:22:47 PM 37.6631 -108.3125 76° East 354 407 45,000  Level Denver Center
Sun 07:23:49 PM 37.6892 -108.1756 76° East 358 412 45,000  Level Denver Center
Sun 07:24:51 PM 37.7122 -108.0586 76° East 359 413 45,000  Level Denver Center
Sun 07:25:53 PM 37.7358 -107.9419 76° East 359 413 45,000  Level Denver Center
Sun 07:26:55 PM 37.7622 -107.8039 76° East 360 414 45,000  Level Denver Center
Sun 07:27:57 PM 37.7853 -107.6853 76° East 363 418 45,000  Level Denver Center
Sun 07:28:59 PM 37.8122 -107.5467 76° East 363 418 45,000  Level Denver Center
Sun 07:30:01 PM 37.8350 -107.4261 77° East 365 420 45,000  Level Denver Center
Sun 07:31:03 PM 37.8611 -107.2883 76° East 362 417 45,000  Level Denver Center
Sun 07:32:05 PM 37.8853 -107.1603 77° East 366 421 45,000  Level Denver Center
Sun 07:33:07 PM 37.9075 -107.0422 77° East 361 415 45,000  Level Denver Center
Sun 07:34:09 PM 37.9328 -106.9019 77° East 365 420 45,000  Level Denver Center
Sun 07:35:11 PM 37.9556 -106.7833 76° East 364 419 45,000  Level Denver Center
Sun 07:36:13 PM 37.9803 -106.6431 77° East 364 419 45,000  Level Denver Center
Sun 07:37:15 PM 38.0022 -106.5236 77° East 363 418 45,000  Level Denver Center
Sun 07:38:17 PM 38.0278 -106.3825 77° East 363 418 45,000  Level Denver Center
Sun 07:39:19 PM 38.0494 -106.2628 77° East 363 418 45,000  Level Denver Center
Sun 07:40:21 PM 38.0708 -106.1422 77° East 366 421 45,000  Level Denver Center
Sun 07:41:23 PM 38.0953 -106.0011 78° East 366 421 45,000  Level Denver Center
Sun 07:42:25 PM 38.1172 -105.8786 77° East 371 427 45,000  Level Denver Center
Sun 07:43:27 PM 38.1428 -105.7369 77° East 370 426 45,000  Level Denver Center
Sun 07:44:29 PM 38.1628 -105.6147 78° East 369 425 45,000  Level Denver Center
Sun 07:45:31 PM 38.1894 -105.4708 77° East 374 430 45,000  Level Denver Center
Sun 07:46:34 PM 38.2089 -105.3494 78° East 368 423 45,000  Level Denver Center
Sun 07:47:36 PM 38.2333 -105.2047 78° East 373 429 45,000  Level Denver Center
Sun 07:48:37 PM 38.2506 -105.1011 78° East 374 430 45,000  Level Denver Center
Sun 07:49:40 PM 38.2786 -104.9369 78° East 371 427 45,000  Level Denver Center
Sun 07:50:42 PM 38.2989 -104.8125 78° East 374 430 45,000  Level Denver Center
Sun 07:51:44 PM 38.3203 -104.6847 78° East 380 437 45,000  Level Denver Center
Sun 07:52:46 PM 38.3442 -104.5394 78° East 378 435 45,000  Level Denver Center
Sun 07:53:48 PM 38.3642 -104.4119 79° East 381 438 45,000  Level Denver Center
Sun 07:54:50 PM 38.3883 -104.2633 78° East 381 438 45,000  Level Denver Center
Sun 07:55:52 PM 38.4083 -104.1383 78° East 379 436 45,000  Level Denver Center
Sun 07:56:54 PM 38.4311 -103.9928 79° East 375 432 45,000  Level Denver Center
Sun 07:57:55 PM 38.4508 -103.8667 79° East 376 433 45,000  Level Denver Center
Sun 07:58:57 PM 38.4733 -103.7181 79° East 381 438 45,000  Level Denver Center
Sun 07:59:59 PM 38.4928 -103.5914 79° East 379 436 45,000  Level Denver Center
Sun 08:01:01 PM 38.5156 -103.4494 78° East 381 438 45,000  Level Denver Center
Sun 08:02:03 PM 38.5344 -103.3214 79° East 383 441 45,000  Level Denver Center
Sun 08:03:05 PM 38.5567 -103.1742 79° East 380 437 45,000  Level Denver Center
Sun 08:04:07 PM 38.5772 -103.0411 79° East 378 435 45,000  Level Denver Center
Sun 08:05:09 PM 38.5950 -102.9147 80° East 378 435 45,000  Level Denver Center
Sun 08:06:11 PM 38.6178 -102.7681 79° East 376 433 45,000  Level Denver Center
Sun 08:07:13 PM 38.6353 -102.6478 79° East 379 436 45,000  Level Denver Center
Sun 08:08:14 PM 38.6561 -102.4994 80° East 380 437 45,000  Level Denver Center
Sun 08:09:28 PM 38.6750 -102.3733 79° East 379 436 45,000  Level Denver Center
Sun 08:10:31 PM 38.6994 -102.2019 80° East 383 441 45,000  Level Denver Center
Sun 08:11:32 PM 38.7197 -102.0531 80° East 380 437 45,000  Level Denver Center
Sun 08:12:34 PM 38.7375 -101.9258 80° East 380 437 45,000  Level Denver Center
Sun 08:13:36 PM 38.7556 -101.7972 80° East 382 440 45,000  Level Denver Center
Sun 08:14:38 PM 38.7764 -101.6469 80° East 384 442 45,000  Level Denver Center
Sun 08:15:39 PM 38.7906 -101.5386 80° East 384 442 45,000  Level Denver Center
Sun 08:16:42 PM 38.8139 -101.3650 80° East 385 443 45,000  Level Denver Center
Sun 08:17:44 PM 38.8319 -101.2344 80° East 388 447 45,000  Level Denver Center
Sun 08:18:45 PM 38.8514 -101.0822 81° East 386 444 45,000  Level Denver Center
Sun 08:19:47 PM 38.8664 -100.9736 80° East 387 445 45,000  Level Denver Center
Sun 08:20:49 PM 38.8856 -100.8208 81° East 387 445 45,000  Level Denver Center
Sun 08:21:51 PM 38.9058 -100.6664 80° East 392 451 45,000  Level Denver Center
Sun 08:22:53 PM 38.9225 -100.5344 81° East 390 449 45,000  Level Denver Center
Sun 08:23:55 PM 38.9422 -100.3819 81° East 389 448 45,000  Level Denver Center
Sun 08:24:56 PM 38.9589 -100.2506 81° East 388 447 45,000  Level Denver Center
Sun 08:25:58 PM 38.9767 -100.0953 82° East 390 449 45,000  Level Denver Center
Sun 08:27:00 PM 38.9928 -99.9614 81° East 394 453 45,000  Level Denver Center
Sun 08:28:02 PM 39.0117 -99.8108 81° East 387 445 45,000  Level Denver Center
Sun 08:29:04 PM 39.0278 -99.6794 81° East 386 444 45,000  Level Denver Center
Sun 08:30:06 PM 39.0422 -99.5464 82° East 390 449 45,000  Level Denver Center
Sun 08:31:07 PM 39.0603 -99.3911 81° East 392 451 45,000  Level Denver Center
Sun 08:32:09 PM 39.0761 -99.2597 81° East 390 449 45,000  Level Denver Center
Sun 08:33:11 PM 39.0936 -99.1033 82° East 394 453 45,000  Level Denver Center
Sun 08:34:13 PM 39.1103 -98.9581 82° East 393 452 45,000  Level Denver Center
Sun 08:34:57 PM 39.1214 -98.8561 82° East 395 455 45,000  Level Kansas City Center
Sun 08:35:14 PM 39.1261 -98.8178 81° East 396 456 45,000  Level Denver Center
Sun 08:36:16 PM 39.1414 -98.6767 82° East 398 458 45,000  Level Denver Center
Sun 08:37:18 PM 39.1569 -98.5361 82° East 398 458 45,000  Level Denver Center
Sun 08:39:05 PM 39.1836 -98.2889 82° East 402 463 45,000  Level Kansas City Center
Sun 08:40:07 PM 39.1986 -98.1467 82° East 401 461 45,000  Level Kansas City Center
Sun 08:41:09 PM 39.2131 -98.0047 82° East 400 460 45,000  Level Kansas City Center
Sun 08:42:10 PM 39.2311 -97.8356 82° East 403 464 45,000  Level Kansas City Center
Sun 08:43:12 PM 39.2467 -97.6814 83° East 397 457 45,000  Level Kansas City Center
Sun 08:44:14 PM 39.2619 -97.5375 82° East 404 465 45,000  Level Kansas City Center
Sun 08:45:16 PM 39.2756 -97.3944 83° East 398 458 45,000  Level Kansas City Center
Sun 08:46:18 PM 39.2897 -97.2567 82° East 403 464 45,000  Level Kansas City Center
Sun 08:47:20 PM 39.3044 -97.0958 83° East 404 465 45,000  Level Kansas City Center
Sun 08:48:22 PM 39.3181 -96.9556 83° East 409 471 45,000  Level Kansas City Center
Sun 08:49:23 PM 39.3306 -96.8147 83° East 412 474 45,000  Level Kansas City Center
Sun 08:50:25 PM 39.3469 -96.6486 83° East 417 480 45,000  Level Kansas City Center
Sun 08:51:27 PM 39.3603 -96.4950 84° East 419 482 45,000  Level Kansas City Center
Sun 08:52:29 PM 39.3753 -96.3439 83° East 423 487 45,000  Level Kansas City Center
Sun 08:53:31 PM 39.3881 -96.1925 84° East 423 487 45,000  Level Kansas City Center
Sun 08:54:32 PM 39.4017 -96.0208 84° East 425 489 45,000  Level Kansas City Center
Sun 08:55:34 PM 39.4139 -95.8758 84° East 424 488 45,000  Level Kansas City Center
Sun 08:56:36 PM 39.4267 -95.7292 84° East 428 493 45,000  Level Kansas City Center
Sun 08:57:38 PM 39.4411 -95.5581 84° East 426 490 45,000  Level Kansas City Center
Sun 08:58:39 PM 39.4542 -95.3997 84° East 429 494 45,000  Level Kansas City Center
Sun 08:59:41 PM 39.4675 -95.2356 84° East 428 493 45,000  Level Kansas City Center
Sun 09:00:43 PM 39.4792 -95.0878 84° East 430 495 45,000  Level Kansas City Center
Sun 09:01:45 PM 39.4906 -94.9397 84° East 429 494 45,000  Level Kansas City Center
Sun 09:02:46 PM 39.5039 -94.7669 84° East 431 496 45,000  Level Kansas City Center
Sun 09:03:48 PM 39.5153 -94.6178 84° East 433 498 45,000  Level Kansas City Center
Sun 09:04:50 PM 39.5269 -94.4461 85° East 430 495 45,000  Level Kansas City Center
Sun 09:05:51 PM 39.5375 -94.2981 85° East 430 495 45,000  Level Kansas City Center
Sun 09:06:53 PM 39.5483 -94.1500 85° East 431 496 45,000  Level Kansas City Center
Sun 09:07:55 PM 39.5606 -93.9772 85° East 430 495 45,000  Level Kansas City Center
Sun 09:08:57 PM 39.5706 -93.8281 85° East 433 498 45,000  Level Kansas City Center
Sun 09:09:58 PM 39.5814 -93.6564 85° East 434 499 45,000  Level Kansas City Center
Sun 09:11:00 PM 39.5919 -93.5031 85° East 431 496 45,000  Level Kansas City Center
Sun 09:12:02 PM 39.6025 -93.3497 85° East 432 497 45,000  Level Kansas City Center
Sun 09:13:03 PM 39.6131 -93.1972 85° East 430 495 45,000  Level Kansas City Center
Sun 09:14:05 PM 39.6219 -93.0428 86° East 434 499 45,000  Level Kansas City Center
Sun 09:15:07 PM 39.6311 -92.8528 86° East 441 507 45,000  Level Kansas City Center
Sun 09:16:08 PM 39.6411 -92.6992 85° East 438 504 45,000  Level Kansas City Center
Sun 09:17:10 PM 39.6492 -92.5450 86° East 435 501 45,000  Level Kansas City Center
Sun 09:18:11 PM 39.6578 -92.3906 86° East 435 501 45,000  Level Kansas City Center
Sun 09:19:13 PM 39.6661 -92.2361 86° East 435 501 45,000  Level Kansas City Center
Sun 09:20:14 PM 39.6753 -92.0514 86° East 433 498 45,000  Level Kansas City Center
Sun 09:21:16 PM 39.6833 -91.8950 86° East 436 502 45,000  Level Kansas City Center
Sun 09:22:18 PM 39.6908 -91.7411 86° East 436 502 45,000  Level Kansas City Center
Sun 09:23:19 PM 39.6967 -91.5867 87° East 433 498 45,000  Level Kansas City Center
Sun 09:24:21 PM 39.7036 -91.4317 87° East 434 499 45,000  Level Kansas City Center
Sun 09:25:22 PM 39.7111 -91.2678 87° East 437 503 45,000  Level Kansas City Center
Sun 09:26:24 PM 39.7169 -91.1122 87° East 434 499 45,000  Level Kansas City Center
Sun 09:27:25 PM 39.7236 -90.9544 87° East 436 502 45,000 -488 Level Kansas City Center
Sun 09:28:27 PM 39.7303 -90.7947 87° East 441 507 44,000 -1,659 Descending Kansas City Center
Sun 09:29:28 PM 39.7372 -90.6022 87° East 444 511 41,600 -2,098 Descending Kansas City Center
Sun 09:30:30 PM 39.7419 -90.4525 88° East 443 510 39,700 -1,902 Descending Kansas City Center
Sun 09:31:31 PM 39.7478 -90.2958 87° East 439 505 37,700 -1,902 Descending Kansas City Center
Sun 09:32:33 PM 39.7519 -90.1406 88° East 435 501 35,800 -1,317 Descending Kansas City Center
Sun 09:33:34 PM 39.7567 -89.9911 88° East 425 489 35,000 -390 Descending Kansas City Center
Sun 09:34:36 PM 39.7631 -89.8094 87° East 421 484 35,000  Level Kansas City Center
Sun 09:35:37 PM 39.7683 -89.6492 87° East 435 501 35,000 -98 Level Kansas City Center
Sun 09:36:39 PM 39.7722 -89.4936 88° East 435 501 34,800 -537 Descending Kansas City Center
Sun 09:37:40 PM 39.7761 -89.3403 88° East 431 496 33,900 -1,073 Descending Kansas City Center
Sun 09:38:42 PM 39.7806 -89.1847 88° East 431 496 32,600 -1,220 Descending Kansas City Center
Sun 09:39:43 PM 39.7836 -89.0322 88° East 428 493 31,400 -927 Descending Kansas City Center
Sun 09:40:45 PM 39.7864 -88.8756 89° East 432 497 30,700 -1,024 Descending Kansas City Center
Sun 09:41:46 PM 39.7906 -88.7172 88° East 437 503 29,300 -1,659 Descending Kansas City Center
Sun 09:42:48 PM 39.7950 -88.5239 88° East 445 512 27,300 -1,756 Descending Kansas City Center
Sun 09:43:49 PM 39.7986 -88.3622 88° East 448 516 25,700 -1,561 Descending Kansas City Center
Sun 09:44:51 PM 39.8025 -88.2019 88° East 446 513 24,100 -829 Descending Kansas City Center
Sun 09:45:52 PM 39.8042 -88.0311 89° East 435 501 24,000 -72 Descending Kansas City Center
Sun 09:46:14 PM 39.8028 -88.0078 94° East 434 499 24,000 -1,214 Level Indianapolis Center
Sun 09:47:16 PM 39.8053 -87.8247 89° East 425 489 22,300 -1,756 Descending Indianapolis Center
Sun 09:48:17 PM 39.8067 -87.6700 89° East 428 493 20,400 -1,918 Descending Indianapolis Center
Sun 09:49:18 PM 39.8086 -87.5219 89° East 418 481 18,400 -1,869 Descending Indianapolis Center
Sun 09:50:19 PM 39.8094 -87.3756 90° East 410 472 16,600 -1,721 Descending Indianapolis Center
Sun 09:51:20 PM 39.8114 -87.2400 89° East 387 445 14,900 -1,623 Descending Indianapolis Center
Sun 09:52:21 PM 39.8114 -87.1133 90° East 362 417 13,300 -1,366 Descending Indianapolis Center
Sun 09:53:23 PM 39.8128 -86.9903 89° East 348 400 12,100 -1,024 Descending Indianapolis Center
Sun 09:54:24 PM 39.8161 -86.8675 88° East 342 394 11,200 -1,279 Descending Indianapolis Center
Sun 09:55:25 PM 39.8197 -86.7581 88° East 316 364 9,500 -1,869 Descending Indianapolis Center
Sun 09:56:26 PM 39.8225 -86.6575 88° East 289 333 7,400 -1,770 Descending Indianapolis Center
Sun 09:57:27 PM 39.8214 -86.5494 91° East 256 295 5,900 -1,574 Descending Indianapolis Center
Sun 09:58:28 PM 39.8222 -86.4572 89° East 255 293 4,200 -1,033 Descending Indianapolis Center
Sun 09:59:29 PM 39.8225 -86.3664 90° East 255 293 3,800 -393 Descending Indianapolis Center

Login

Don't have an account? Register now (free) for customized features, flight alerts, and more!